Time;durP1;ratioP1;P1;durP2;ratioP2;P2;SDS_P1;SDS_P2;PMS_P1;PMS_P2;Temp;Humidity;BMP_temperature;BMP_pressure;BME280_temperature;BME280_humidity;BME280_pressure;Samples;Min_cycle;Max_cycle;Signal;HPM_P1;HPM_P2
2020/12/13 00:00:39;;;;;;;60.50;18.85;;;6.70;95.20;;;;;;5022672;28;20041;-55
2020/12/13 00:03:07;;;;;;;74.18;18.38;;;6.70;95.20;;;;;;5019345;28;20049;-54
2020/12/13 00:05:33;;;;;;;100.03;18.20;;;6.60;95.20;;;;;;5012229;28;20102;-53
2020/12/13 00:07:59;;;;;;;66.57;17.23;;;6.60;95.30;;;;;;5009961;28;20046;-54
2020/12/13 00:10:44;;;;;;;99.80;18.23;;;6.60;95.20;;;;;;4997734;28;20056;-55
2020/12/13 00:13:11;;;;;;;71.82;17.35;;;6.60;95.30;;;;;;5014672;28;20049;-53
2020/12/13 00:15:57;;;;;;;62.75;17.60;;;6.60;95.20;;;;;;5016394;28;20045;-56
2020/12/13 00:18:23;;;;;;;42.72;16.30;;;6.50;95.30;;;;;;5006534;28;20445;-55
2020/12/13 00:20:49;;;;;;;92.40;16.52;;;6.50;95.30;;;;;;5026745;28;20049;-55
2020/12/13 00:23:36;;;;;;;57.45;15.93;;;6.50;95.30;;;;;;5003010;28;20080;-55
2020/12/13 00:26:06;;;;;;;47.85;14.88;;;6.50;95.30;;;;;;5005275;28;20108;-55
2020/12/13 00:28:31;;;;;;;74.78;16.00;;;6.50;95.20;;;;;;5018902;28;20563;-54
2020/12/13 00:30:57;;;;;;;85.32;18.08;;;6.40;95.10;;;;;;5014016;28;20121;-55
2020/12/13 00:33:22;;;;;;;85.72;16.77;;;6.40;95.00;;;;;;5023054;28;20056;-55
2020/12/13 00:35:48;;;;;;;91.32;15.55;;;6.40;95.00;;;;;;5012758;28;20038;-56
2020/12/13 00:38:15;;;;;;;104.90;16.02;;;6.30;95.10;;;;;;5015940;28;20061;-55
2020/12/13 00:40:42;;;;;;;51.70;14.95;;;6.30;95.00;;;;;;5012342;28;20212;-55
2020/12/13 00:43:28;;;;;;;82.22;15.30;;;6.20;95.00;;;;;;5008101;28;20038;-56
2020/12/13 00:45:58;;;;;;;93.45;17.33;;;6.10;95.00;;;;;;5013308;28;20045;-52
2020/12/13 00:48:45;;;;;;;66.57;13.80;;;6.10;95.20;;;;;;5002717;28;20457;-54
2020/12/13 00:51:12;;;;;;;44.63;13.38;;;6.00;95.00;;;;;;5017878;28;20045;-54
2020/12/13 00:53:38;;;;;;;29.25;13.35;;;6.00;95.10;;;;;;5023164;28;20038;-54
2020/12/13 00:56:05;;;;;;;22.63;13.07;;;6.00;95.10;;;;;;5025238;28;20064;-54
2020/12/13 00:58:33;;;;;;;30.00;13.43;;;6.00;95.10;;;;;;5010081;28;20230;-54
2020/12/13 01:01:19;;;;;;;56.65;14.57;;;6.00;95.10;;;;;;5004296;28;20049;-54
2020/12/13 01:03:45;;;;;;;35.78;12.48;;;6.00;95.30;;;;;;5023811;28;20034;-54
2020/12/13 01:06:13;;;;;;;31.48;13.18;;;6.00;95.10;;;;;;5005120;28;20080;-54
2020/12/13 01:08:40;;;;;;;31.60;13.15;;;5.90;95.00;;;;;;5028127;28;20041;-51
2020/12/13 01:11:05;;;;;;;40.67;14.50;;;5.90;94.90;;;;;;5029346;28;20401;-55
2020/12/13 01:13:51;;;;;;;31.73;13.98;;;5.90;94.80;;;;;;5002742;28;20465;-54
2020/12/13 01:16:18;;;;;;;29.23;14.25;;;5.80;94.80;;;;;;5018491;28;20136;-52
2020/12/13 01:18:45;;;;;;;45.28;15.95;;;5.80;94.90;;;;;;5029953;28;20405;-56
2020/12/13 01:21:25;;;;;;;35.92;14.98;;;5.80;94.90;;;;;;5009118;28;20046;-51
2020/12/13 01:23:52;;;;;;;34.88;15.68;;;5.70;94.90;;;;;;5017380;28;20030;-51
2020/12/13 01:26:38;;;;;;;35.75;14.93;;;5.80;95.00;;;;;;5001310;28;20054;-51
2020/12/13 01:29:23;;;;;;;33.53;14.75;;;5.80;95.00;;;;;;5023501;28;20053;-52
2020/12/13 01:31:49;;;;;;;29.15;14.70;;;5.70;94.80;;;;;;5028675;28;20029;-54
2020/12/13 01:34:15;;;;;;;35.38;15.15;;;5.70;94.80;;;;;;5029837;28;20405;-54
2020/12/13 01:36:41;;;;;;;55.47;15.10;;;5.70;94.80;;;;;;5028648;28;20045;-51
2020/12/13 01:39:11;;;;;;;29.70;15.25;;;5.70;94.80;;;;;;5024591;28;20046;-56
2020/12/13 01:41:42;;;;;;;32.17;15.35;;;5.70;94.70;;;;;;5017236;28;20057;-54
2020/12/13 01:44:07;;;;;;;29.98;15.15;;;5.60;94.70;;;;;;5010185;28;20034;-55
2020/12/13 01:46:53;;;;;;;29.27;14.68;;;5.60;94.70;;;;;;5005110;28;20060;-54
2020/12/13 01:49:19;;;;;;;34.80;15.98;;;5.60;94.70;;;;;;5029483;28;20093;-52
2020/12/13 01:54:25;;;;;;;38.08;16.20;;;5.60;94.80;;;;;;5018186;28;20030;-53
2020/12/13 01:57:12;;;;;;;57.60;16.83;;;5.70;94.80;;;;;;5009457;28;20037;-54
2020/12/13 01:59:38;;;;;;;43.58;16.60;;;5.70;94.80;;;;;;5022270;28;20057;-56
2020/12/13 02:02:27;;;;;;;45.92;16.58;;;5.60;94.80;;;;;;5009638;28;20057;-54
2020/12/13 02:04:55;;;;;;;37.47;16.48;;;5.60;94.90;;;;;;5020625;28;20041;-56
2020/12/13 02:07:42;;;;;;;40.10;16.90;;;5.70;94.90;;;;;;5022235;28;20045;-53
2020/12/13 02:10:11;;;;;;;40.35;17.02;;;5.70;94.90;;;;;;5026111;28;20053;-52
2020/12/13 02:12:39;;;;;;;49.00;16.77;;;5.70;94.90;;;;;;5016517;28;20518;-54
2020/12/13 02:15:08;;;;;;;53.22;17.40;;;5.70;94.90;;;;;;5011763;28;20342;-51
2020/12/13 02:17:36;;;;;;;45.55;18.65;;;5.70;94.90;;;;;;5018611;28;20552;-52
2020/12/13 02:20:08;;;;;;;37.35;16.80;;;5.70;94.90;;;;;;5026528;28;20036;-51
2020/12/13 02:22:38;;;;;;;57.67;16.98;;;5.70;94.90;;;;;;5030152;28;20368;-54
2020/12/13 02:25:24;;;;;;;39.75;16.08;;;5.70;94.90;;;;;;5004923;28;20042;-52
2020/12/13 02:27:50;;;;;;;48.53;15.98;;;5.70;94.80;;;;;;5019837;28;20112;-54
2020/12/13 02:30:15;;;;;;;86.75;17.77;;;5.70;94.80;;;;;;5025559;28;20044;-51
2020/12/13 02:32:42;;;;;;;46.08;15.68;;;5.70;94.90;;;;;;5017018;28;20055;-51
2020/12/13 02:35:09;;;;;;;50.92;16.70;;;5.70;94.80;;;;;;5022892;28;20049;-53
2020/12/13 02:37:35;;;;;;;41.75;16.85;;;5.70;94.90;;;;;;5019143;28;20034;-51
2020/12/13 02:40:21;;;;;;;53.53;16.30;;;5.70;94.90;;;;;;5010735;28;20065;-51
2020/12/13 02:42:47;;;;;;;39.30;15.93;;;5.70;94.90;;;;;;4996591;28;20522;-51
2020/12/13 02:45:14;;;;;;;52.17;17.98;;;5.60;94.70;;;;;;5014450;28;20049;-51
2020/12/13 02:47:39;;;;;;;59.22;16.15;;;5.60;94.80;;;;;;5026437;28;20042;-51
2020/12/13 02:50:05;;;;;;;77.95;18.10;;;5.60;94.80;;;;;;5022023;28;20061;-51
2020/12/13 02:52:31;;;;;;;50.10;16.25;;;5.50;94.80;;;;;;5014104;28;20046;-50
2020/12/13 02:55:17;;;;;;;54.25;16.05;;;5.50;94.80;;;;;;5003339;28;20077;-56
2020/12/13 02:58:02;;;;;;;66.57;17.23;;;5.50;94.80;;;;;;5009682;28;20100;-55
2020/12/13 03:00:28;;;;;;;73.78;16.75;;;5.50;94.80;;;;;;5022816;28;20452;-52
2020/12/13 03:02:53;;;;;;;67.20;17.33;;;5.50;94.90;;;;;;5012922;28;20391;-54
2020/12/13 03:05:19;;;;;;;76.30;17.40;;;5.50;94.80;;;;;;5021746;28;20129;-54
2020/12/13 03:08:05;;;;;;;77.68;16.38;;;5.50;94.90;;;;;;5012019;28;20481;-55
2020/12/13 03:10:50;;;;;;;64.88;17.25;;;5.50;94.90;;;;;;5012551;28;20037;-55
2020/12/13 03:13:16;;;;;;;63.95;16.23;;;5.50;94.90;;;;;;5018637;28;20037;-55
2020/12/13 03:15:43;;;;;;;100.07;18.00;;;5.50;94.90;;;;;;5032452;28;20049;-55
2020/12/13 03:18:09;;;;;;;56.03;17.23;;;5.50;94.90;;;;;;5032521;28;20037;-55
2020/12/13 03:20:35;;;;;;;52.63;16.30;;;5.50;94.90;;;;;;5030578;28;20084;-55
2020/12/13 03:23:20;;;;;;;66.85;17.10;;;5.50;95.00;;;;;;5010808;28;20132;-54
2020/12/13 03:25:46;;;;;;;48.40;16.40;;;5.40;95.00;;;;;;5018691;28;20061;-55
2020/12/13 03:28:11;;;;;;;34.17;16.23;;;5.50;95.10;;;;;;5023041;28;20046;-55
2020/12/13 03:30:37;;;;;;;50.50;16.63;;;5.50;95.00;;;;;;5013026;28;20411;-55
2020/12/13 03:33:02;;;;;;;89.65;18.23;;;5.50;95.00;;;;;;5013843;28;20077;-55
2020/12/13 03:35:28;;;;;;;43.10;15.70;;;5.50;95.00;;;;;;5012950;28;20387;-55
2020/12/13 03:37:54;;;;;;;57.50;17.48;;;5.60;95.00;;;;;;5016431;28;20081;-55
2020/12/13 03:40:19;;;;;;;49.65;15.82;;;5.50;95.00;;;;;;5016521;28;20056;-54
2020/12/13 03:42:45;;;;;;;40.40;16.55;;;5.60;95.00;;;;;;5021897;28;20132;-55
2020/12/13 03:45:11;;;;;;;159.18;18.75;;;5.50;94.90;;;;;;5024056;28;20505;-52
2020/12/13 03:47:36;;;;;;;66.57;15.90;;;5.50;94.80;;;;;;5022580;28;20099;-55
2020/12/13 03:50:05;;;;;;;81.80;16.33;;;5.50;94.90;;;;;;5014873;28;20479;-53
2020/12/13 03:52:51;;;;;;;28.98;15.07;;;5.40;94.90;;;;;;5006049;28;20472;-57
2020/12/13 03:55:17;;;;;;;36.88;14.60;;;5.40;94.90;;;;;;4995136;28;20124;-56
2020/12/13 03:57:43;;;;;;;37.05;15.65;;;5.40;94.90;;;;;;5002877;28;20489;-54
2020/12/13 04:00:10;;;;;;;42.83;17.13;;;5.40;94.90;;;;;;5013172;28;20584;-56
2020/12/13 04:02:35;;;;;;;60.97;16.52;;;5.40;94.80;;;;;;5012501;28;20387;-56
2020/12/13 04:05:01;;;;;;;65.82;16.45;;;5.40;94.80;;;;;;5020449;28;20152;-51
2020/12/13 04:07:26;;;;;;;91.03;17.42;;;5.40;94.90;;;;;;5018519;28;20410;-51
2020/12/13 04:10:12;;;;;;;55.03;16.77;;;5.40;94.80;;;;;;4999868;28;20050;-53
2020/12/13 04:12:38;;;;;;;45.22;15.15;;;5.40;94.90;;;;;;5012157;28;20534;-54
2020/12/13 04:15:03;;;;;;;126.20;17.38;;;5.40;94.90;;;;;;5015118;28;20188;-56
2020/12/13 04:17:29;;;;;;;65.28;16.55;;;5.40;94.80;;;;;;5017748;28;20100;-54
2020/12/13 04:19:54;;;;;;;41.28;15.18;;;5.40;95.10;;;;;;5024494;28;20044;-54
2020/12/13 04:22:20;;;;;;;38.40;13.85;;;5.40;94.80;;;;;;5027789;28;20494;-55
2020/12/13 04:24:46;;;;;;;48.45;14.98;;;5.40;94.90;;;;;;5009268;28;20030;-54
2020/12/13 04:27:11;;;;;;;41.80;14.80;;;5.40;94.80;;;;;;5018783;28;20034;-54
2020/12/13 04:29:37;;;;;;;43.63;14.27;;;5.30;94.70;;;;;;5014677;28;20112;-55
2020/12/13 04:32:03;;;;;;;39.15;14.82;;;5.30;94.80;;;;;;5028741;28;20036;-56
2020/12/13 04:34:29;;;;;;;33.75;14.48;;;5.30;94.90;;;;;;4994157;28;20046;-53
2020/12/13 04:36:58;;;;;;;38.60;15.05;;;5.30;94.80;;;;;;5007130;28;20103;-53
2020/12/13 04:39:24;;;;;;;29.42;13.90;;;5.30;94.90;;;;;;5025084;28;20065;-51
2020/12/13 04:41:49;;;;;;;31.77;13.68;;;5.30;94.90;;;;;;5015999;28;20084;-50
2020/12/13 04:44:16;;;;;;;29.27;14.15;;;5.30;94.90;;;;;;5025343;28;20049;-54
2020/12/13 04:46:45;;;;;;;26.60;13.30;;;5.30;94.90;;;;;;5017924;28;20131;-50
2020/12/13 04:49:33;;;;;;;31.70;14.60;;;5.30;94.80;;;;;;5012169;28;20274;-50
2020/12/13 04:52:19;;;;;;;31.23;14.13;;;5.30;94.80;;;;;;5000697;28;20410;-51
2020/12/13 04:54:50;;;;;;;38.83;14.63;;;5.40;94.90;;;;;;5024168;28;20037;-51
2020/12/13 04:57:17;;;;;;;36.92;14.57;;;5.30;94.80;;;;;;5022652;28;20038;-56
2020/12/13 04:59:43;;;;;;;29.00;13.25;;;5.30;94.80;;;;;;5015453;28;20489;-52
2020/12/13 05:02:28;;;;;;;31.45;13.90;;;5.30;94.80;;;;;;5015004;28;20399;-51
2020/12/13 05:04:54;;;;;;;38.30;14.30;;;5.30;94.80;;;;;;5029205;28;20117;-51
2020/12/13 05:07:39;;;;;;;32.47;14.32;;;5.30;95.00;;;;;;5015144;28;20112;-52
2020/12/13 05:10:05;;;;;;;33.55;14.32;;;5.30;94.80;;;;;;5018225;28;20053;-51
2020/12/13 05:12:51;;;;;;;70.10;15.27;;;5.30;94.80;;;;;;5011893;28;20069;-51
2020/12/13 05:15:16;;;;;;;86.45;15.95;;;5.30;94.90;;;;;;5019112;28;20163;-51
2020/12/13 05:17:42;;;;;;;67.82;17.92;;;5.30;94.70;;;;;;5015543;28;20046;-51
2020/12/13 05:20:08;;;;;;;55.65;16.08;;;5.20;94.70;;;;;;5017695;28;20116;-55
2020/12/13 05:22:56;;;;;;;55.20;15.75;;;5.20;94.70;;;;;;5012089;28;20092;-51
2020/12/13 05:25:33;;;;;;;72.68;17.52;;;5.20;94.70;;;;;;5004669;28;20053;-50
2020/12/13 05:28:02;;;;;;;81.97;16.90;;;5.20;94.80;;;;;;5019247;28;20255;-51
2020/12/13 05:30:51;;;;;;;58.88;15.30;;;5.20;94.80;;;;;;5032781;28;20494;-51
2020/12/13 05:35:48;;;;;;;62.83;15.13;;;5.10;94.80;;;;;;5021150;28;20037;-51
2020/12/13 05:38:36;;;;;;;66.55;15.70;;;5.10;94.90;;;;;;5011638;28;20044;-53
2020/12/13 05:41:03;;;;;;;92.72;16.33;;;5.10;94.90;;;;;;5014822;28;20042;-55
2020/12/13 05:43:33;;;;;;;62.17;15.73;;;5.10;94.90;;;;;;5013414;28;20119;-51
2020/12/13 05:48:44;;;;;;;68.55;15.07;;;5.10;95.00;;;;;;5013627;28;20072;-50
2020/12/13 05:51:18;;;;;;;63.33;14.88;;;5.10;94.90;;;;;;5014036;28;20383;-51
2020/12/13 05:53:44;;;;;;;50.80;14.73;;;5.10;94.90;;;;;;5029735;28;20048;-50
2020/12/13 05:56:11;;;;;;;112.28;16.05;;;5.10;95.00;;;;;;5019976;28;20470;-54
2020/12/13 05:58:59;;;;;;;44.92;14.20;;;5.10;95.00;;;;;;5002375;28;20458;-51
2020/12/13 06:01:47;;;;;;;128.52;15.20;;;5.10;95.00;;;;;;5006059;28;20429;-50
2020/12/13 06:04:16;;;;;;;140.45;16.30;;;5.00;95.00;;;;;;5027662;28;20038;-55
2020/12/13 06:06:43;;;;;;;87.05;14.25;;;5.20;95.00;;;;;;5018461;28;20042;-51
2020/12/13 06:09:13;;;;;;;73.03;14.23;;;5.20;95.10;;;;;;5022892;28;20499;-55
2020/12/13 06:11:45;;;;;;;98.72;14.27;;;5.20;95.10;;;;;;5024687;28;20037;-55
2020/12/13 06:14:15;;;;;;;164.70;16.25;;;5.10;95.00;;;;;;5005398;28;20500;-54
2020/12/13 06:17:02;;;;;;;93.55;14.35;;;5.20;95.10;;;;;;5023476;28;20133;-55
2020/12/13 06:19:30;;;;;;;40.47;13.15;;;5.10;95.00;;;;;;5023145;28;20030;-54
2020/12/13 06:21:57;;;;;;;154.52;15.88;;;5.10;95.10;;;;;;5017558;28;20046;-58
2020/12/13 06:24:48;;;;;;;102.15;14.60;;;5.20;95.10;;;;;;5003220;28;20069;-53
2020/12/13 06:27:34;;;;;;;74.50;14.38;;;5.20;95.10;;;;;;5003708;28;20077;-54
2020/12/13 06:30:00;;;;;;;98.78;15.52;;;5.20;95.00;;;;;;5012838;28;20070;-54
2020/12/13 06:32:41;;;;;;;129.60;16.45;;;5.20;95.00;;;;;;5023702;28;20037;-56
2020/12/13 06:35:26;;;;;;;129.18;15.38;;;5.20;95.00;;;;;;5007277;28;20387;-55
2020/12/13 06:37:59;;;;;;;135.13;15.73;;;5.20;94.90;;;;;;5016411;28;20048;-56
2020/12/13 06:40:25;;;;;;;113.97;15.75;;;5.20;94.90;;;;;;5019953;28;20129;-55
2020/12/13 06:43:10;;;;;;;152.85;15.68;;;5.20;94.80;;;;;;5002766;28;20055;-53
2020/12/13 06:45:36;;;;;;;107.00;14.55;;;5.20;94.80;;;;;;5030574;28;20116;-56
2020/12/13 06:48:02;;;;;;;126.97;15.48;;;5.20;94.80;;;;;;5013877;28;20137;-53
2020/12/13 06:50:48;;;;;;;158.07;17.38;;;5.10;94.80;;;;;;5003925;28;20495;-55
2020/12/13 06:53:17;;;;;;;249.70;19.35;;;5.10;94.90;;;;;;5017177;28;20068;-56
2020/12/13 06:55:43;;;;;;;123.13;15.60;;;5.10;94.90;;;;;;5024414;28;20068;-55
2020/12/13 06:58:10;;;;;;;242.30;18.73;;;5.10;94.90;;;;;;5027766;28;20115;-55
2020/12/13 07:00:49;;;;;;;85.55;15.43;;;5.10;94.90;;;;;;5012663;28;20041;-54
2020/12/13 07:03:25;;;;;;;150.60;16.55;;;5.10;95.00;;;;;;4991151;28;20042;-52
2020/12/13 07:06:26;;;;;;;231.45;17.67;;;5.10;95.10;;;;;;4997669;28;20132;-52
2020/12/13 07:09:13;;;;;;;142.75;14.70;;;5.10;95.10;;;;;;5008931;28;20510;-55
2020/12/13 07:11:43;;;;;;;154.85;15.70;;;5.10;95.40;;;;;;5015849;28;20124;-53
2020/12/13 07:14:32;;;;;;;136.00;16.20;;;5.10;95.10;;;;;;4992776;28;20434;-51
2020/12/13 07:17:19;;;;;;;249.25;18.17;;;5.00;95.20;;;;;;4995164;28;20050;-53
2020/12/13 07:19:45;;;;;;;208.52;17.40;;;5.10;95.30;;;;;;5004903;28;20040;-56
2020/12/13 07:22:13;;;;;;;292.52;19.63;;;5.10;95.30;;;;;;5023901;28;20033;-55
2020/12/13 07:24:59;;;;;;;180.90;16.63;;;5.10;95.40;;;;;;5014787;28;20042;-54
2020/12/13 07:27:26;;;;;;;272.63;19.20;;;5.10;95.40;;;;;;5028787;28;20080;-56
2020/12/13 07:29:55;;;;;;;62.00;13.85;;;5.10;95.40;;;;;;5020743;28;20041;-56
2020/12/13 07:32:23;;;;;;;160.35;16.50;;;5.10;95.30;;;;;;5004040;28;20041;-54
2020/12/13 07:34:49;;;;;;;130.18;15.65;;;5.20;95.40;;;;;;5013020;28;20072;-53
2020/12/13 07:37:16;;;;;;;267.88;20.38;;;5.20;95.30;;;;;;5013831;28;20034;-54
2020/12/13 07:39:42;;;;;;;221.35;18.10;;;5.20;95.30;;;;;;5029660;28;20033;-54
2020/12/13 07:42:28;;;;;;;232.60;18.25;;;5.10;95.30;;;;;;5006422;28;20096;-54
2020/12/13 07:44:59;;;;;;;216.57;18.50;;;5.10;95.40;;;;;;5018384;28;20029;-53
2020/12/13 07:47:24;;;;;;;141.13;16.55;;;5.10;95.30;;;;;;5027785;28;20044;-52
2020/12/13 07:49:50;;;;;;;81.80;15.82;;;5.10;95.40;;;;;;5020768;28;20115;-54
2020/12/13 07:52:44;;;;;;;175.77;17.63;;;5.10;95.40;;;;;;5005885;28;20088;-53
2020/12/13 07:55:10;;;;;;;120.05;16.25;;;5.10;95.50;;;;;;5022537;28;20045;-53
2020/12/13 07:57:36;;;;;;;112.18;16.05;;;5.10;95.50;;;;;;5026747;28;20038;-52
2020/12/13 08:00:08;;;;;;;86.07;15.07;;;5.20;95.60;;;;;;5017247;28;20511;-50
2020/12/13 08:02:34;;;;;;;158.75;17.60;;;5.20;95.50;;;;;;5016689;28;20037;-53
2020/12/13 08:05:00;;;;;;;127.40;16.83;;;5.20;95.60;;;;;;5018737;28;21205;-50
2020/12/13 08:07:25;;;;;;;83.40;14.65;;;5.20;95.50;;;;;;5016316;28;20064;-52
2020/12/13 08:09:55;;;;;;;124.57;16.73;;;5.20;95.50;;;;;;5014695;28;20046;-52
2020/12/13 08:12:30;;;;;;;89.55;15.20;;;5.30;95.50;;;;;;5018482;28;20037;-54
2020/12/13 08:14:55;;;;;;;127.45;16.65;;;5.30;95.50;;;;;;5014261;28;20037;-50
2020/12/13 08:17:22;;;;;;;86.22;13.95;;;5.30;95.40;;;;;;5009483;28;20116;-50
2020/12/13 08:19:49;;;;;;;168.98;17.77;;;5.30;95.40;;;;;;5018374;28;20037;-54
2020/12/13 08:22:20;;;;;;;73.82;14.68;;;5.20;95.30;;;;;;5019984;28;20034;-52
2020/12/13 08:25:02;;;;;;;149.52;16.83;;;5.20;95.30;;;;;;5009427;28;20050;-55
2020/12/13 08:27:29;;;;;;;117.78;18.75;;;5.30;95.30;;;;;;4994615;28;20454;-54
2020/12/13 08:29:57;;;;;;;118.28;16.02;;;5.30;95.20;;;;;;5016476;28;20474;-55
2020/12/13 08:32:28;;;;;;;111.82;15.27;;;5.30;95.30;;;;;;5016015;28;20045;-54
2020/12/13 08:34:54;;;;;;;49.50;13.50;;;5.30;95.20;;;;;;5020684;28;20066;-51
2020/12/13 08:37:40;;;;;;;99.97;14.25;;;5.20;95.30;;;;;;4983559;28;20429;-55
2020/12/13 08:40:10;;;;;;;115.25;15.82;;;5.30;95.40;;;;;;5012589;28;20490;-55
2020/12/13 08:42:37;;;;;;;98.82;15.63;;;5.30;95.40;;;;;;5009599;28;20049;-54
2020/12/13 08:45:04;;;;;;;179.20;17.65;;;5.30;95.30;;;;;;5014081;28;20058;-55
2020/12/13 08:47:49;;;;;;;163.27;17.85;;;5.30;95.30;;;;;;5003270;28;20050;-54
2020/12/13 08:50:18;;;;;;;135.68;16.45;;;5.30;95.30;;;;;;5019881;28;20061;-55
2020/12/13 08:52:44;;;;;;;103.35;15.55;;;5.30;95.40;;;;;;5015813;28;20057;-52
2020/12/13 08:55:11;;;;;;;85.22;15.63;;;5.40;95.30;;;;;;5010090;28;20041;-54
2020/12/13 08:57:45;;;;;;;94.40;17.13;;;5.40;95.30;;;;;;5026726;28;20049;-52
2020/12/13 09:00:30;;;;;;;75.80;17.98;;;5.40;95.40;;;;;;5013921;28;20520;-51
2020/12/13 09:02:57;;;;;;;51.03;14.68;;;5.50;95.40;;;;;;5011860;28;20060;-54
2020/12/13 09:05:41;;;;;;;50.28;15.77;;;5.50;95.40;;;;;;5013559;28;20037;-54
2020/12/13 09:08:27;;;;;;;50.25;15.82;;;5.50;95.40;;;;;;5008123;28;20046;-53
2020/12/13 09:11:28;;;;;;;39.63;15.13;;;5.50;95.40;;;;;;4997943;28;20410;-52
2020/12/13 09:13:54;;;;;;;34.63;14.48;;;5.60;95.40;;;;;;5019418;28;20041;-54
2020/12/13 09:16:32;;;;;;;29.10;14.25;;;5.60;95.40;;;;;;5020418;28;20076;-55
2020/12/13 09:19:18;;;;;;;30.02;14.00;;;5.60;95.50;;;;;;4992758;28;20046;-55
2020/12/13 09:22:01;;;;;;;42.42;14.93;;;5.70;95.40;;;;;;5025055;28;20556;-54
2020/12/13 09:24:29;;;;;;;41.55;15.77;;;5.80;95.40;;;;;;5019658;28;20042;-54
2020/12/13 09:26:59;;;;;;;51.10;16.70;;;5.80;95.20;;;;;;5023723;28;20128;-55
2020/12/13 09:29:25;;;;;;;49.38;16.98;;;5.80;95.30;;;;;;5027964;28;20390;-55
2020/12/13 09:31:50;;;;;;;47.35;17.17;;;5.80;95.30;;;;;;5015556;28;20041;-53
2020/12/13 09:34:16;;;;;;;39.35;16.45;;;5.90;95.30;;;;;;5012783;28;20387;-54
2020/12/13 09:36:46;;;;;;;74.30;18.63;;;5.90;95.30;;;;;;5015459;28;20449;-53
2020/12/13 09:39:13;;;;;;;40.08;16.52;;;5.90;95.40;;;;;;5014309;28;20712;-52
2020/12/13 09:42:00;;;;;;;71.10;17.63;;;5.90;95.40;;;;;;5004465;28;20152;-56
2020/12/13 09:44:49;;;;;;;50.53;17.42;;;6.00;95.50;;;;;;5002745;28;20046;-52
2020/12/13 09:47:15;;;;;;;80.57;19.83;;;6.00;95.40;;;;;;5014183;28;20076;-51
2020/12/13 09:49:42;;;;;;;71.97;18.95;;;6.00;95.40;;;;;;5004153;28;20062;-52
2020/12/13 09:52:08;;;;;;;77.35;21.38;;;6.00;95.50;;;;;;5026740;28;20041;-54
2020/12/13 09:54:34;;;;;;;55.65;19.70;;;6.10;95.60;;;;;;5016181;28;20100;-54
2020/12/13 09:57:00;;;;;;;56.28;20.30;;;6.10;95.50;;;;;;5023649;28;20045;-54
2020/12/13 09:59:26;;;;;;;66.43;22.10;;;6.10;95.60;;;;;;5007533;28;20099;-51
2020/12/13 10:01:52;;;;;;;80.53;21.63;;;6.20;95.60;;;;;;5031736;28;20037;-51
2020/12/13 10:04:20;;;;;;;96.32;24.42;;;6.20;95.50;;;;;;5010284;28;20414;-51
2020/12/13 10:07:23;;;;;;;85.50;23.30;;;6.30;95.60;;;;;;5016592;28;20055;-53
2020/12/13 10:09:49;;;;;;;125.85;31.48;;;6.30;95.50;;;;;;5011407;28;20072;-52
2020/12/13 10:12:15;;;;;;;97.55;24.30;;;6.30;95.60;;;;;;5013620;28;20042;-54
2020/12/13 10:15:00;;;;;;;120.40;25.00;;;6.30;95.60;;;;;;5001797;28;20050;-54
2020/12/13 10:17:28;;;;;;;131.50;25.70;;;6.40;95.70;;;;;;5014014;28;20411;-54
2020/12/13 10:20:13;;;;;;;166.00;27.02;;;6.40;95.70;;;;;;5016706;28;20072;-54
2020/12/13 10:22:39;;;;;;;108.80;25.95;;;6.40;95.70;;;;;;5032721;28;20537;-55
2020/12/13 10:25:05;;;;;;;145.85;26.70;;;6.50;95.70;;;;;;5022128;28;20437;-53
2020/12/13 10:27:34;;;;;;;93.68;24.92;;;6.50;95.80;;;;;;5001711;28;20033;-54
2020/12/13 10:30:00;;;;;;;172.95;28.73;;;6.60;95.80;;;;;;5018798;28;20038;-54
2020/12/13 10:32:26;;;;;;;167.27;27.67;;;6.60;95.80;;;;;;5015937;28;20386;-53
2020/12/13 10:34:52;;;;;;;186.63;30.23;;;6.70;95.90;;;;;;5007782;28;20121;-55
2020/12/13 10:37:17;;;;;;;145.52;27.42;;;6.70;95.90;;;;;;5019870;28;20077;-55
2020/12/13 10:40:07;;;;;;;143.65;27.13;;;6.70;95.90;;;;;;4991079;28;20049;-54
2020/12/13 10:42:32;;;;;;;120.25;25.48;;;6.70;95.90;;;;;;4999100;28;20038;-52
2020/12/13 10:44:58;;;;;;;111.03;25.15;;;6.70;96.00;;;;;;5021917;28;20124;-54
2020/12/13 10:47:43;;;;;;;119.80;26.77;;;6.80;96.00;;;;;;5005987;28;20068;-55
2020/12/13 10:50:29;;;;;;;134.95;27.38;;;6.80;96.00;;;;;;5008391;28;20075;-53
2020/12/13 10:52:54;;;;;;;151.18;29.75;;;6.90;96.00;;;;;;5012515;28;20029;-55
2020/12/13 10:55:40;;;;;;;175.45;30.50;;;6.90;96.00;;;;;;5006201;28;20046;-54
2020/12/13 10:58:06;;;;;;;120.78;28.67;;;7.00;96.00;;;;;;5012893;28;20042;-55
2020/12/13 11:00:52;;;;;;;145.40;29.88;;;7.00;96.00;;;;;;4999462;28;20042;-52
2020/12/13 11:03:17;;;;;;;210.45;33.72;;;7.00;96.00;;;;;;5020122;28;20041;-55
2020/12/13 11:06:04;;;;;;;164.38;29.83;;;7.10;96.00;;;;;;4999496;28;20116;-50
2020/12/13 11:08:30;;;;;;;113.03;29.02;;;7.20;96.10;;;;;;5011426;28;20045;-53
2020/12/13 11:11:20;;;;;;;120.18;29.00;;;7.20;96.20;;;;;;5002941;28;20041;-50
2020/12/13 11:13:46;;;;;;;136.43;29.63;;;7.40;96.20;;;;;;5030272;28;20041;-54
2020/12/13 11:16:32;;;;;;;117.63;29.67;;;7.40;96.10;;;;;;4998535;28;20136;-50
2020/12/13 11:18:58;;;;;;;94.40;27.60;;;7.50;96.10;;;;;;4998505;28;20034;-50
2020/12/13 11:21:23;;;;;;;111.90;27.85;;;7.50;96.10;;;;;;5021592;28;20064;-50
2020/12/13 11:23:49;;;;;;;118.13;28.65;;;7.60;96.00;;;;;;5029404;28;20037;-53
2020/12/13 11:26:14;;;;;;;97.85;27.05;;;7.60;96.00;;;;;;5029134;28;20057;-52
2020/12/13 11:28:40;;;;;;;101.25;26.23;;;7.60;96.00;;;;;;5018683;28;20072;-49
2020/12/13 11:31:06;;;;;;;108.57;28.67;;;7.70;96.10;;;;;;5030369;28;20045;-50
2020/12/13 11:33:33;;;;;;;97.13;26.95;;;7.80;96.00;;;;;;5029717;28;20394;-50
2020/12/13 11:35:58;;;;;;;93.50;26.50;;;7.90;96.00;;;;;;5012502;28;20041;-48
2020/12/13 11:38:24;;;;;;;87.85;27.13;;;7.90;96.00;;;;;;5012536;28;20066;-50
2020/12/13 11:40:50;;;;;;;81.75;25.85;;;7.90;96.00;;;;;;5025329;28;20493;-49
2020/12/13 11:43:15;;;;;;;81.57;25.65;;;7.90;96.00;;;;;;5017537;28;20411;-49
2020/12/13 11:45:41;;;;;;;87.18;25.70;;;8.00;96.00;;;;;;5025674;28;20041;-49
2020/12/13 11:48:26;;;;;;;81.05;26.25;;;8.00;95.90;;;;;;5003406;28;20046;-49
2020/12/13 11:50:52;;;;;;;75.60;23.48;;;8.10;96.00;;;;;;5008113;28;20502;-52
2020/12/13 11:53:18;;;;;;;72.55;24.05;;;8.10;96.00;;;;;;5013689;28;20127;-51
2020/12/13 11:55:46;;;;;;;72.85;23.92;;;8.20;95.90;;;;;;5012266;28;20049;-49
2020/12/13 11:58:11;;;;;;;66.47;23.98;;;8.20;95.80;;;;;;5017459;28;20553;-51
2020/12/13 12:00:37;;;;;;;72.50;25.05;;;8.20;95.80;;;;;;5018903;28;20033;-48
2020/12/13 12:03:03;;;;;;;67.60;24.48;;;8.20;95.80;;;;;;5015282;28;20331;-53
2020/12/13 12:05:29;;;;;;;68.10;24.27;;;8.20;95.80;;;;;;5006539;28;20042;-49
2020/12/13 12:07:55;;;;;;;55.78;24.05;;;8.30;95.70;;;;;;5002590;28;20049;-49
2020/12/13 12:10:40;;;;;;;58.17;25.55;;;8.30;95.60;;;;;;5002536;28;20133;-50
2020/12/13 12:13:06;;;;;;;59.08;23.98;;;8.40;95.50;;;;;;5015947;28;20129;-49
2020/12/13 12:15:32;;;;;;;60.70;23.65;;;8.40;95.60;;;;;;5022231;28;20120;-49
2020/12/13 12:17:57;;;;;;;60.08;23.23;;;8.40;95.50;;;;;;5022184;28;20048;-51
2020/12/13 12:20:32;;;;;;;63.40;25.40;;;8.40;95.50;;;;;;5027165;28;20549;-50
2020/12/13 12:22:57;;;;;;;56.70;23.95;;;8.30;95.50;;;;;;5017935;28;20132;-51
2020/12/13 12:25:23;;;;;;;61.70;25.58;;;8.40;95.50;;;;;;5023066;28;20172;-49
2020/12/13 12:27:48;;;;;;;58.50;24.48;;;8.40;95.50;;;;;;5015699;28;20108;-51
2020/12/13 12:30:35;;;;;;;63.55;25.63;;;8.40;95.50;;;;;;5012202;28;20124;-53
2020/12/13 12:33:21;;;;;;;57.60;24.13;;;8.40;95.60;;;;;;5008557;28;20049;-54
2020/12/13 12:35:46;;;;;;;57.15;24.20;;;8.50;95.50;;;;;;5025477;28;20410;-52
2020/12/13 12:38:12;;;;;;;56.42;25.25;;;8.50;95.30;;;;;;5020069;28;20045;-53
2020/12/13 12:40:38;;;;;;;51.83;23.58;;;8.50;95.40;;;;;;5002434;28;20052;-54
2020/12/13 12:43:03;;;;;;;50.75;25.17;;;8.50;95.40;;;;;;5019773;28;20045;-54
2020/12/13 12:45:29;;;;;;;52.63;25.05;;;8.60;95.30;;;;;;5022263;28;20048;-52
2020/12/13 12:47:55;;;;;;;51.40;25.08;;;8.50;95.30;;;;;;5022931;28;20034;-54
2020/12/13 12:50:20;;;;;;;49.33;24.10;;;8.50;95.30;;;;;;5017741;28;20103;-52
2020/12/13 12:52:46;;;;;;;49.25;23.88;;;8.50;95.20;;;;;;5013822;28;20475;-53
2020/12/13 12:55:12;;;;;;;44.80;24.23;;;8.60;95.00;;;;;;5016438;28;20046;-55
2020/12/13 12:57:38;;;;;;;48.72;25.45;;;8.60;95.10;;;;;;5018189;28;20124;-54
2020/12/13 13:02:32;;;;;;;48.30;23.83;;;8.60;94.90;;;;;;5013375;28;20037;-56
2020/12/13 13:05:27;;;;;;;45.00;25.13;;;8.60;94.80;;;;;;4995976;28;20678;-52